<?xml version="1.0" encoding="UTF-8" standalone="no" ?><gpx xmlns="http://www.topografix.com/GPX/1/1" xmlns:gpxx="http://www.garmin.com/xmlschemas/GpxExtensions/v3" xmlns:wptx1="http://www.garmin.com/xmlschemas/WaypointExtension/v1" xmlns:gpxtpx="http://www.garmin.com/xmlschemas/TrackPointExtension/v1" creator="GuideVTT.com" version="1.1" xmlns:xsi="http://www.w3.org/2001/XMLSchema-instance" xsi:schemaLocation="http://www.topografix.com/GPX/1/1 http://www.topografix.com/GPX/1/1/gpx.xsd http://www.garmin.com/xmlschemas/GpxExtensions/v3 http://www8.garmin.com/xmlschemas/GpxExtensionsv3.xsd http://www.garmin.com/xmlschemas/WaypointExtension/v1 http://www8.garmin.com/xmlschemas/WaypointExtensionv1.xsd http://www.garmin.com/xmlschemas/TrackPointExtension/v1 http://www.garmin.com/xmlschemas/TrackPointExtensionv1.xsd">
<metadata><link href="http://www.garmin.com"><text>Garmin International</text></link><time>2013-06-22T15:13:50Z</time></metadata>
<trk><name>marche3.gpx</name><extensions><gpxx:TrackExtension><gpxx:DisplayColor>Cyan</gpxx:DisplayColor></gpxx:TrackExtension></extensions><trkseg>
<trkpt lat="31.04596250" lon="-6.10406566"><ele></ele><time>2014-6-8T8:34:25Z</time></trkpt>
<trkpt lat="31.12226564" lon="-6.08965818"><ele></ele><time>2014-6-8T8:34:28Z</time></trkpt>
<trkpt lat="31.02995147" lon="-6.06562953"><ele></ele><time>2014-6-8T8:34:31Z</time></trkpt>
<trkpt lat="31.21511852" lon="-5.85317317"><ele></ele><time>2014-6-8T8:34:34Z</time></trkpt>
<trkpt lat="31.04107493" lon="-5.89785023"><ele></ele><time>2014-6-8T8:34:37Z</time></trkpt>
<trkpt lat="31.12100484" lon="-5.83782616"><ele></ele><time>2014-6-8T8:34:40Z</time></trkpt>
<trkpt lat="31.14763850" lon="-5.83634290"><ele></ele><time>2014-6-8T8:34:43Z</time></trkpt>
<trkpt lat="31.03246420" lon="-6.10884754"><ele></ele><time>2014-6-8T8:34:46Z</time></trkpt>
<trkpt lat="31.01528691" lon="-5.95961932"><ele></ele><time>2014-6-8T8:34:49Z</time></trkpt>
<trkpt lat="" lon=""><ele></ele><time>2014-6-8T8:34:52Z</time></trkpt>
<trkpt lat="31.02999506" lon="-6.06568568"><ele></ele><time>2014-6-8T8:34:55Z</time></trkpt>
<trkpt lat="31.02996203" lon="-6.06571100"><ele></ele><time>2014-6-8T8:34:58Z</time></trkpt>
<trkpt lat="31.02995449" lon="-6.06563539"><ele></ele><time>2014-6-8T8:35:1Z</time></trkpt>
<trkpt lat="31.03007024" lon="-6.06500457"><ele></ele><time>2014-6-8T8:35:4Z</time></trkpt>
<trkpt lat="31.03040175" lon="-6.06460970"><ele></ele><time>2014-6-8T8:35:7Z</time></trkpt>
<trkpt lat="31.03065924" lon="-6.06447157"><ele></ele><time>2014-6-8T8:35:10Z</time></trkpt>
<trkpt lat="31.03125335" lon="-6.06381878"><ele></ele><time>2014-6-8T8:35:13Z</time></trkpt>
<trkpt lat="31.03254047" lon="-6.06228246"><ele></ele><time>2014-6-8T8:35:16Z</time></trkpt>
<trkpt lat="31.03260409" lon="-6.06214223"><ele></ele><time>2014-6-8T8:35:19Z</time></trkpt>
<trkpt lat="31.03288472" lon="-6.06214701"><ele></ele><time>2014-6-8T8:35:22Z</time></trkpt>
<trkpt lat="31.03308882" lon="-6.06198625"><ele></ele><time>2014-6-8T8:35:25Z</time></trkpt>
<trkpt lat="31.03351604" lon="-6.06142592"><ele></ele><time>2014-6-8T8:35:28Z</time></trkpt>
<trkpt lat="31.03358218" lon="-6.06116700"><ele></ele><time>2014-6-8T8:35:31Z</time></trkpt>
<trkpt lat="31.03385400" lon="-6.06099634"><ele></ele><time>2014-6-8T8:35:34Z</time></trkpt>
<trkpt lat="31.03401904" lon="-6.06077272"><ele></ele><time>2014-6-8T8:35:37Z</time></trkpt>
<trkpt lat="31.03403446" lon="-6.06068253"><ele></ele><time>2014-6-8T8:35:40Z</time></trkpt>
<trkpt lat="31.03427670" lon="-6.06061723"><ele></ele><time>2014-6-8T8:35:43Z</time></trkpt>
<trkpt lat="31.03433512" lon="-6.06052444"><ele></ele><time>2014-6-8T8:35:46Z</time></trkpt>
<trkpt lat="31.03460577" lon="-6.06034256"><ele></ele><time>2014-6-8T8:35:49Z</time></trkpt>
<trkpt lat="31.03503794" lon="-6.05987987"><ele></ele><time>2014-6-8T8:35:52Z</time></trkpt>
<trkpt lat="31.03529736" lon="-6.05968030"><ele></ele><time>2014-6-8T8:35:55Z</time></trkpt>
<trkpt lat="31.03521606" lon="-6.05957075"><ele></ele><time>2014-6-8T8:35:58Z</time></trkpt>
<trkpt lat="31.03567447" lon="-6.05912006"><ele></ele><time>2014-6-8T8:36:1Z</time></trkpt>
<trkpt lat="31.03567857" lon="-6.05894487"><ele></ele><time>2014-6-8T8:36:4Z</time></trkpt>
<trkpt lat="31.03593615" lon="-6.05860884"><ele></ele><time>2014-6-8T8:36:7Z</time></trkpt>
<trkpt lat="31.03603992" lon="-6.05832134"><ele></ele><time>2014-6-8T8:36:10Z</time></trkpt>
<trkpt lat="31.03692320" lon="-6.05795765"><ele></ele><time>2014-6-8T8:36:13Z</time></trkpt>
<trkpt lat="31.03772619" lon="-6.05732616"><ele></ele><time>2014-6-8T8:36:16Z</time></trkpt>
<trkpt lat="31.03796457" lon="-6.05708619"><ele></ele><time>2014-6-8T8:36:19Z</time></trkpt>
<trkpt lat="31.03807085" lon="-6.05687538"><ele></ele><time>2014-6-8T8:36:22Z</time></trkpt>
<trkpt lat="31.03817319" lon="-6.05679106"><ele></ele><time>2014-6-8T8:36:25Z</time></trkpt>
<trkpt lat="31.03844561" lon="-6.05625344"><ele></ele><time>2014-6-8T8:36:28Z</time></trkpt>
<trkpt lat="31.03877300" lon="-6.05595463"><ele></ele><time>2014-6-8T8:36:31Z</time></trkpt>
<trkpt lat="31.03903142" lon="-6.05557057"><ele></ele><time>2014-6-8T8:36:34Z</time></trkpt>
<trkpt lat="31.03932261" lon="-6.05536723"><ele></ele><time>2014-6-8T8:36:37Z</time></trkpt>
<trkpt lat="31.03937994" lon="-6.05524384"><ele></ele><time>2014-6-8T8:36:40Z</time></trkpt>
<trkpt lat="31.03998595" lon="-6.05491142"><ele></ele><time>2014-6-8T8:36:43Z</time></trkpt>
<trkpt lat="31.03992904" lon="-6.05493497"><ele></ele><time>2014-6-8T8:36:46Z</time></trkpt>
<trkpt lat="31.03987657" lon="-6.05468645"><ele></ele><time>2014-6-8T8:36:49Z</time></trkpt>
<trkpt lat="31.03976333" lon="-6.05465636"><ele></ele><time>2014-6-8T8:36:52Z</time></trkpt>
<trkpt lat="31.03958890" lon="-6.05451194"><ele></ele><time>2014-6-8T8:36:55Z</time></trkpt>
<trkpt lat="31.03958513" lon="-6.05438562"><ele></ele><time>2014-6-8T8:36:58Z</time></trkpt>
<trkpt lat="31.03948052" lon="-6.05427129"><ele></ele><time>2014-6-8T8:37:1Z</time></trkpt>
<trkpt lat="31.03920870" lon="-6.05417322"><ele></ele><time>2014-6-8T8:37:4Z</time></trkpt>
<trkpt lat="31.03918808" lon="-6.05397214"><ele></ele><time>2014-6-8T8:37:7Z</time></trkpt>
<trkpt lat="31.03948169" lon="-6.05371364"><ele></ele><time>2014-6-8T8:37:10Z</time></trkpt>
<trkpt lat="31.03959225" lon="-6.05332372"><ele></ele><time>2014-6-8T8:37:13Z</time></trkpt>
<trkpt lat="31.03958194" lon="-6.05310176"><ele></ele><time>2014-6-8T8:37:16Z</time></trkpt>
<trkpt lat="31.03967733" lon="-6.05294972"><ele></ele><time>2014-6-8T8:37:19Z</time></trkpt>
<trkpt lat="31.03965160" lon="-6.05286749"><ele></ele><time>2014-6-8T8:37:22Z</time></trkpt>
<trkpt lat="31.03984999" lon="-6.05199837"><ele></ele><time>2014-6-8T8:37:25Z</time></trkpt>
<trkpt lat="31.04047637" lon="-6.05110293"><ele></ele><time>2014-6-8T8:37:28Z</time></trkpt>
<trkpt lat="31.04054427" lon="-6.05082943"><ele></ele><time>2014-6-8T8:37:31Z</time></trkpt>
<trkpt lat="31.04050060" lon="-6.05070672"><ele></ele><time>2014-6-8T8:37:34Z</time></trkpt>
<trkpt lat="31.04038426" lon="-6.05062156"><ele></ele><time>2014-6-8T8:37:37Z</time></trkpt>
<trkpt lat="31.04052222" lon="-6.05025351"><ele></ele><time>2014-6-8T8:37:40Z</time></trkpt>
<trkpt lat="31.04060286" lon="-6.04972914"><ele></ele><time>2014-6-8T8:37:43Z</time></trkpt>
<trkpt lat="31.04076371" lon="-6.04959419"><ele></ele><time>2014-6-8T8:37:46Z</time></trkpt>
<trkpt lat="31.04084007" lon="-6.04929730"><ele></ele><time>2014-6-8T8:37:49Z</time></trkpt>
<trkpt lat="31.04099010" lon="-6.04901517"><ele></ele><time>2014-6-8T8:37:52Z</time></trkpt>
<trkpt lat="31.04098273" lon="-6.04849147"><ele></ele><time>2014-6-8T8:37:55Z</time></trkpt>
<trkpt lat="31.04081769" lon="-6.04816063"><ele></ele><time>2014-6-8T8:37:58Z</time></trkpt>
<trkpt lat="31.04090360" lon="-6.04790264"><ele></ele><time>2014-6-8T8:38:1Z</time></trkpt>
<trkpt lat="31.04103436" lon="-6.04778261"><ele></ele><time>2014-6-8T8:38:4Z</time></trkpt>
<trkpt lat="31.04102254" lon="-6.04738313"><ele></ele><time>2014-6-8T8:38:7Z</time></trkpt>
<trkpt lat="31.04027060" lon="-6.04583725"><ele></ele><time>2014-6-8T8:38:10Z</time></trkpt>
<trkpt lat="31.04028208" lon="-6.04569116"><ele></ele><time>2014-6-8T8:38:13Z</time></trkpt>
<trkpt lat="31.04019516" lon="-6.04548111"><ele></ele><time>2014-6-8T8:38:16Z</time></trkpt>
<trkpt lat="31.03996214" lon="-6.04518581"><ele></ele><time>2014-6-8T8:38:19Z</time></trkpt>
<trkpt lat="31.03980498" lon="-6.04475121"><ele></ele><time>2014-6-8T8:38:22Z</time></trkpt>
<trkpt lat="31.03974002" lon="-6.04476362"><ele></ele><time>2014-6-8T8:38:25Z</time></trkpt>
<trkpt lat="31.03955043" lon="-6.04443437"><ele></ele><time>2014-6-8T8:38:28Z</time></trkpt>
<trkpt lat="31.03935781" lon="-6.04348496"><ele></ele><time>2014-6-8T8:38:31Z</time></trkpt>
<trkpt lat="31.03928447" lon="-6.04339083"><ele></ele><time>2014-6-8T8:38:34Z</time></trkpt>
<trkpt lat="31.03924239" lon="-6.04292228"><ele></ele><time>2014-6-8T8:38:37Z</time></trkpt>
<trkpt lat="31.03912270" lon="-6.04276696"><ele></ele><time>2014-6-8T8:38:40Z</time></trkpt>
<trkpt lat="31.03913133" lon="-6.04283771"><ele></ele><time>2014-6-8T8:38:43Z</time></trkpt>
<trkpt lat="31.03887409" lon="-6.04235323"><ele></ele><time>2014-6-8T8:38:46Z</time></trkpt>
<trkpt lat="31.03855625" lon="-6.04144773"><ele></ele><time>2014-6-8T8:38:49Z</time></trkpt>
<trkpt lat="31.03863076" lon="-6.04140641"><ele></ele><time>2014-6-8T8:38:52Z</time></trkpt>
<trkpt lat="31.03866261" lon="-6.04103761"><ele></ele><time>2014-6-8T8:38:55Z</time></trkpt>
<trkpt lat="31.03860268" lon="-6.04026639"><ele></ele><time>2014-6-8T8:38:58Z</time></trkpt>
<trkpt lat="31.03864225" lon="-6.04021124"><ele></ele><time>2014-6-8T8:39:1Z</time></trkpt>
<trkpt lat="31.03857134" lon="-6.04005265"><ele></ele><time>2014-6-8T8:39:4Z</time></trkpt>
<trkpt lat="31.03876990" lon="-6.03973757"><ele></ele><time>2014-6-8T8:39:7Z</time></trkpt>
<trkpt lat="31.03873034" lon="-6.03933214"><ele></ele><time>2014-6-8T8:39:10Z</time></trkpt>
<trkpt lat="31.03831041" lon="-6.03907314"><ele></ele><time>2014-6-8T8:39:13Z</time></trkpt>
<trkpt lat="31.03782359" lon="-6.03926609"><ele></ele><time>2014-6-8T8:39:16Z</time></trkpt>
<trkpt lat="31.03721707" lon="-6.03980999"><ele></ele><time>2014-6-8T8:39:19Z</time></trkpt>
<trkpt lat="31.03715027" lon="-6.04005734"><ele></ele><time>2014-6-8T8:39:22Z</time></trkpt>
<trkpt lat="31.03697718" lon="-6.04023982"><ele></ele><time>2014-6-8T8:39:25Z</time></trkpt>
<trkpt lat="31.03620613" lon="-6.04048759"><ele></ele><time>2014-6-8T8:39:28Z</time></trkpt>
<trkpt lat="31.03594654" lon="-6.04088405"><ele></ele><time>2014-6-8T8:39:31Z</time></trkpt>
<trkpt lat="31.03587940" lon="-6.03976381"><ele></ele><time>2014-6-8T8:39:34Z</time></trkpt>
<trkpt lat="31.03598535" lon="-6.03865078"><ele></ele><time>2014-6-8T8:39:37Z</time></trkpt>
<trkpt lat="31.03587463" lon="-6.03826077"><ele></ele><time>2014-6-8T8:39:40Z</time></trkpt>
<trkpt lat="31.03588552" lon="-6.03812481"><ele></ele><time>2014-6-8T8:39:43Z</time></trkpt>
<trkpt lat="31.03570716" lon="-6.03761712"><ele></ele><time>2014-6-8T8:39:46Z</time></trkpt>
<trkpt lat="31.03536140" lon="-6.03695638"><ele></ele><time>2014-6-8T8:39:49Z</time></trkpt>
<trkpt lat="31.03489252" lon="-6.03621013"><ele></ele><time>2014-6-8T8:39:52Z</time></trkpt>
<trkpt lat="31.03478070" lon="-6.03625506"><ele></ele><time>2014-6-8T8:39:55Z</time></trkpt>
<trkpt lat="31.03466051" lon="-6.03587553"><ele></ele><time>2014-6-8T8:39:58Z</time></trkpt>
<trkpt lat="31.03472438" lon="-6.03499115"><ele></ele><time>2014-6-8T8:40:1Z</time></trkpt>
<trkpt lat="31.03539778" lon="-6.03405959"><ele></ele><time>2014-6-8T8:40:4Z</time></trkpt>
<trkpt lat="31.03550557" lon="-6.03383931"><ele></ele><time>2014-6-8T8:40:7Z</time></trkpt>
<trkpt lat="31.03573356" lon="-6.03361082"><ele></ele><time>2014-6-8T8:40:10Z</time></trkpt>
<trkpt lat="31.03578561" lon="-6.03336775"><ele></ele><time>2014-6-8T8:40:13Z</time></trkpt>
<trkpt lat="31.03594017" lon="-6.03309710"><ele></ele><time>2014-6-8T8:40:16Z</time></trkpt>
<trkpt lat="31.03602843" lon="-6.03135525"><ele></ele><time>2014-6-8T8:40:19Z</time></trkpt>
<trkpt lat="31.03594118" lon="-6.03098318"><ele></ele><time>2014-6-8T8:40:22Z</time></trkpt>
<trkpt lat="31.03596146" lon="-6.03080649"><ele></ele><time>2014-6-8T8:40:25Z</time></trkpt>
<trkpt lat="31.03648357" lon="-6.03035881"><ele></ele><time>2014-6-8T8:40:28Z</time></trkpt>
<trkpt lat="31.03692815" lon="-6.03012806"><ele></ele><time>2014-6-8T8:40:31Z</time></trkpt>
<trkpt lat="31.03695740" lon="-6.02997475"><ele></ele><time>2014-6-8T8:40:34Z</time></trkpt>
<trkpt lat="31.03694139" lon="-6.02947385"><ele></ele><time>2014-6-8T8:40:37Z</time></trkpt>
<trkpt lat="31.03657317" lon="-6.02957133"><ele></ele><time>2014-6-8T8:40:40Z</time></trkpt>
<trkpt lat="31.03683737" lon="-6.02903531"><ele></ele><time>2014-6-8T8:40:43Z</time></trkpt>
<trkpt lat="31.03679320" lon="-6.02877212"><ele></ele><time>2014-6-8T8:40:46Z</time></trkpt>
<trkpt lat="31.03667233" lon="-6.02834112"><ele></ele><time>2014-6-8T8:40:49Z</time></trkpt>
<trkpt lat="31.03635198" lon="-6.02790518"><ele></ele><time>2014-6-8T8:40:52Z</time></trkpt>
<trkpt lat="31.03615860" lon="-6.02779730"><ele></ele><time>2014-6-8T8:40:55Z</time></trkpt>
<trkpt lat="31.03599784" lon="-6.02664035"><ele></ele><time>2014-6-8T8:40:58Z</time></trkpt>
<trkpt lat="31.03624938" lon="-6.02646693"><ele></ele><time>2014-6-8T8:41:1Z</time></trkpt>
<trkpt lat="31.03718539" lon="-6.02554726"><ele></ele><time>2014-6-8T8:41:4Z</time></trkpt>
<trkpt lat="31.03788980" lon="-6.02517117"><ele></ele><time>2014-6-8T8:41:7Z</time></trkpt>
<trkpt lat="31.03841929" lon="-6.02510302"><ele></ele><time>2014-6-8T8:41:10Z</time></trkpt>
<trkpt lat="31.03886730" lon="-6.02498249"><ele></ele><time>2014-6-8T8:41:13Z</time></trkpt>
<trkpt lat="31.03898758" lon="-6.02457295"><ele></ele><time>2014-6-8T8:41:16Z</time></trkpt>
<trkpt lat="31.03895665" lon="-6.02426156"><ele></ele><time>2014-6-8T8:41:19Z</time></trkpt>
<trkpt lat="31.03902312" lon="-6.02324543"><ele></ele><time>2014-6-8T8:41:22Z</time></trkpt>
<trkpt lat="31.03855407" lon="-6.02302984"><ele></ele><time>2014-6-8T8:41:25Z</time></trkpt>
<trkpt lat="31.03823354" lon="-6.02251947"><ele></ele><time>2014-6-8T8:41:28Z</time></trkpt>
<trkpt lat="31.03824578" lon="-6.02088357"><ele></ele><time>2014-6-8T8:41:31Z</time></trkpt>
<trkpt lat="31.04074175" lon="-6.01844612"><ele></ele><time>2014-6-8T8:41:34Z</time></trkpt>
<trkpt lat="31.04149335" lon="-6.01715337"><ele></ele><time>2014-6-8T8:41:37Z</time></trkpt>
<trkpt lat="31.04140283" lon="-6.01696604"><ele></ele><time>2014-6-8T8:41:40Z</time></trkpt>
<trkpt lat="31.04111315" lon="-6.01665859"><ele></ele><time>2014-6-8T8:41:43Z</time></trkpt>
<trkpt lat="31.03992132" lon="-6.01502177"><ele></ele><time>2014-6-8T8:41:46Z</time></trkpt>
<trkpt lat="31.04023657" lon="-6.01436815"><ele></ele><time>2014-6-8T8:41:49Z</time></trkpt>
<trkpt lat="31.04075658" lon="-6.01413002"><ele></ele><time>2014-6-8T8:41:52Z</time></trkpt>
<trkpt lat="31.04122094" lon="-6.01341253"><ele></ele><time>2014-6-8T8:41:55Z</time></trkpt>
<trkpt lat="31.04066530" lon="-6.01303711"><ele></ele><time>2014-6-8T8:41:58Z</time></trkpt>
<trkpt lat="31.04057386" lon="-6.01284390"><ele></ele><time>2014-6-8T8:42:1Z</time></trkpt>
<trkpt lat="31.04033346" lon="-6.01167287"><ele></ele><time>2014-6-8T8:42:4Z</time></trkpt>
<trkpt lat="31.04038635" lon="-6.01162115"><ele></ele><time>2014-6-8T8:42:7Z</time></trkpt>
<trkpt lat="31.04014395" lon="-6.00960715"><ele></ele><time>2014-6-8T8:42:10Z</time></trkpt>
<trkpt lat="31.04030790" lon="-6.00951126"><ele></ele><time>2014-6-8T8:42:13Z</time></trkpt>
<trkpt lat="31.04044142" lon="-6.00864650"><ele></ele><time>2014-6-8T8:42:16Z</time></trkpt>
<trkpt lat="31.04087954" lon="-6.00865178"><ele></ele><time>2014-6-8T8:42:19Z</time></trkpt>
<trkpt lat="31.04135916" lon="-6.00768032"><ele></ele><time>2014-6-8T8:42:22Z</time></trkpt>
<trkpt lat="31.04118364" lon="-6.00758728"><ele></ele><time>2014-6-8T8:42:25Z</time></trkpt>
<trkpt lat="31.04061526" lon="-6.00697624"><ele></ele><time>2014-6-8T8:42:28Z</time></trkpt>
<trkpt lat="31.04078458" lon="-6.00622404"><ele></ele><time>2014-6-8T8:42:31Z</time></trkpt>
<trkpt lat="31.04079614" lon="-6.00634709"><ele></ele><time>2014-6-8T8:42:34Z</time></trkpt>
<trkpt lat="31.04090880" lon="-6.00642043"><ele></ele><time>2014-6-8T8:42:37Z</time></trkpt>
<trkpt lat="31.04089555" lon="-6.00638062"><ele></ele><time>2014-6-8T8:42:40Z</time></trkpt>
<trkpt lat="31.04076471" lon="-6.00650333"><ele></ele><time>2014-6-8T8:42:43Z</time></trkpt>
<trkpt lat="31.04088206" lon="-6.00512308"><ele></ele><time>2014-6-8T8:42:46Z</time></trkpt>
<trkpt lat="31.04115346" lon="-6.00352122"><ele></ele><time>2014-6-8T8:42:49Z</time></trkpt>
<trkpt lat="31.04130803" lon="-6.00302098"><ele></ele><time>2014-6-8T8:42:52Z</time></trkpt>
<trkpt lat="31.04142521" lon="-6.00322374"><ele></ele><time>2014-6-8T8:42:55Z</time></trkpt>
<trkpt lat="31.04157977" lon="-6.00326247"><ele></ele><time>2014-6-8T8:42:58Z</time></trkpt>
<trkpt lat="31.04163601" lon="-6.00334067"><ele></ele><time>2014-6-8T8:43:1Z</time></trkpt>
<trkpt lat="31.04177146" lon="-6.00323455"><ele></ele><time>2014-6-8T8:43:4Z</time></trkpt>
<trkpt lat="31.04217304" lon="-6.00239284"><ele></ele><time>2014-6-8T8:43:7Z</time></trkpt>
<trkpt lat="31.04224504" lon="-6.00197995"><ele></ele><time>2014-6-8T8:43:10Z</time></trkpt>
<trkpt lat="31.04189669" lon="-6.00130571"><ele></ele><time>2014-6-8T8:43:13Z</time></trkpt>
<trkpt lat="31.04127534" lon="-6.00051681"><ele></ele><time>2014-6-8T8:43:16Z</time></trkpt>
<trkpt lat="31.04117610" lon="-6.00058193"><ele></ele><time>2014-6-8T8:43:19Z</time></trkpt>
<trkpt lat="31.04070369" lon="-6.00009260"><ele></ele><time>2014-6-8T8:43:22Z</time></trkpt>
<trkpt lat="31.04060336" lon="-5.99991306"><ele></ele><time>2014-6-8T8:43:25Z</time></trkpt>
<trkpt lat="31.04044176" lon="-5.99917763"><ele></ele><time>2014-6-8T8:43:28Z</time></trkpt>
<trkpt lat="31.04017655" lon="-5.99917579"><ele></ele><time>2014-6-8T8:43:31Z</time></trkpt>
<trkpt lat="31.03975788" lon="-5.99902726"><ele></ele><time>2014-6-8T8:43:34Z</time></trkpt>
<trkpt lat="31.03931054" lon="-5.99843935"><ele></ele><time>2014-6-8T8:43:37Z</time></trkpt>
<trkpt lat="31.03930785" lon="-5.99825034"><ele></ele><time>2014-6-8T8:43:40Z</time></trkpt>
<trkpt lat="31.03919956" lon="-5.99803702"><ele></ele><time>2014-6-8T8:43:43Z</time></trkpt>
<trkpt lat="31.03848542" lon="-5.99730100"><ele></ele><time>2014-6-8T8:43:46Z</time></trkpt>
<trkpt lat="31.03802400" lon="-5.99591791"><ele></ele><time>2014-6-8T8:43:49Z</time></trkpt>
<trkpt lat="31.03785410" lon="-5.99576603"><ele></ele><time>2014-6-8T8:43:52Z</time></trkpt>
<trkpt lat="31.03771538" lon="-5.99563225"><ele></ele><time>2014-6-8T8:43:55Z</time></trkpt>
<trkpt lat="31.03750692" lon="-5.99447714"><ele></ele><time>2014-6-8T8:43:58Z</time></trkpt>
<trkpt lat="31.03727885" lon="-5.99441537"><ele></ele><time>2014-6-8T8:44:1Z</time></trkpt>
<trkpt lat="31.03717701" lon="-5.99423189"><ele></ele><time>2014-6-8T8:44:4Z</time></trkpt>
<trkpt lat="31.03724616" lon="-5.99356175"><ele></ele><time>2014-6-8T8:44:7Z</time></trkpt>
<trkpt lat="31.03723467" lon="-5.99330518"><ele></ele><time>2014-6-8T8:44:10Z</time></trkpt>
<trkpt lat="31.03682597" lon="-5.99263245"><ele></ele><time>2014-6-8T8:44:13Z</time></trkpt>
<trkpt lat="31.03659388" lon="-5.99252508"><ele></ele><time>2014-6-8T8:44:16Z</time></trkpt>
<trkpt lat="31.03637268" lon="-5.99216131"><ele></ele><time>2014-6-8T8:44:19Z</time></trkpt>
<trkpt lat="31.03601762" lon="-5.99136804"><ele></ele><time>2014-6-8T8:44:22Z</time></trkpt>
<trkpt lat="31.03584839" lon="-5.99132529"><ele></ele><time>2014-6-8T8:44:25Z</time></trkpt>
<trkpt lat="31.03583171" lon="-5.99134482"><ele></ele><time>2014-6-8T8:44:28Z</time></trkpt>
<trkpt lat="31.03534598" lon="-5.99075759"><ele></ele><time>2014-6-8T8:44:31Z</time></trkpt>
<trkpt lat="31.03484021" lon="-5.98983415"><ele></ele><time>2014-6-8T8:44:34Z</time></trkpt>
<trkpt lat="31.03495689" lon="-5.98962796"><ele></ele><time>2014-6-8T8:44:37Z</time></trkpt>
<trkpt lat="31.03482446" lon="-5.98945068"><ele></ele><time>2014-6-8T8:44:40Z</time></trkpt>
<trkpt lat="31.03462094" lon="-5.98945655"><ele></ele><time>2014-6-8T8:44:43Z</time></trkpt>
<trkpt lat="31.03462094" lon="-5.98948102"><ele></ele><time>2014-6-8T8:44:46Z</time></trkpt>
<trkpt lat="31.03419330" lon="-5.98907157"><ele></ele><time>2014-6-8T8:44:49Z</time></trkpt>
<trkpt lat="31.03363917" lon="-5.98771982"><ele></ele><time>2014-6-8T8:44:52Z</time></trkpt>
<trkpt lat="31.03344974" lon="-5.98548772"><ele></ele><time>2014-6-8T8:44:55Z</time></trkpt>
<trkpt lat="31.03331798" lon="-5.98520759"><ele></ele><time>2014-6-8T8:44:58Z</time></trkpt>
<trkpt lat="31.03281221" lon="-5.98344061"><ele></ele><time>2014-6-8T8:45:1Z</time></trkpt>
<trkpt lat="31.03235850" lon="-5.98348947"><ele></ele><time>2014-6-8T8:45:4Z</time></trkpt>
<trkpt lat="31.03177034" lon="-5.98274876"><ele></ele><time>2014-6-8T8:45:7Z</time></trkpt>
<trkpt lat="31.02886383" lon="-5.98248222"><ele></ele><time>2014-6-8T8:45:10Z</time></trkpt>
<trkpt lat="31.02791752" lon="-5.98268548"><ele></ele><time>2014-6-8T8:45:13Z</time></trkpt>
<trkpt lat="31.02691655" lon="-5.98324447"><ele></ele><time>2014-6-8T8:45:16Z</time></trkpt>
<trkpt lat="31.02662184" lon="-5.98330926"><ele></ele><time>2014-6-8T8:45:19Z</time></trkpt>
<trkpt lat="31.02696818" lon="-5.98338629"><ele></ele><time>2014-6-8T8:45:22Z</time></trkpt>
<trkpt lat="31.02710154" lon="-5.98377094"><ele></ele><time>2014-6-8T8:45:25Z</time></trkpt>
<trkpt lat="31.02693583" lon="-5.98341311"><ele></ele><time>2014-6-8T8:45:28Z</time></trkpt>
<trkpt lat="31.02672771" lon="-5.98342828"><ele></ele><time>2014-6-8T8:45:31Z</time></trkpt>
<trkpt lat="31.02570838" lon="-5.98416572"><ele></ele><time>2014-6-8T8:45:34Z</time></trkpt>
<trkpt lat="31.02560168" lon="-5.98418961"><ele></ele><time>2014-6-8T8:45:37Z</time></trkpt>
<trkpt lat="31.02490380" lon="-5.98409062"><ele></ele><time>2014-6-8T8:45:40Z</time></trkpt>
<trkpt lat="31.02451614" lon="-5.98391368"><ele></ele><time>2014-6-8T8:45:43Z</time></trkpt>
<trkpt lat="31.02434222" lon="-5.98391083"><ele></ele><time>2014-6-8T8:45:46Z</time></trkpt>
<trkpt lat="31.02351861" lon="-5.98351412"><ele></ele><time>2014-6-8T8:45:49Z</time></trkpt>
<trkpt lat="31.02276323" lon="-5.98329484"><ele></ele><time>2014-6-8T8:45:52Z</time></trkpt>
<trkpt lat="31.02101862" lon="-5.98220117"><ele></ele><time>2014-6-8T8:45:55Z</time></trkpt>
<trkpt lat="31.02116464" lon="-5.98208140"><ele></ele><time>2014-6-8T8:45:58Z</time></trkpt>
<trkpt lat="31.02101041" lon="-5.98228659"><ele></ele><time>2014-6-8T8:46:1Z</time></trkpt>
<trkpt lat="31.02088518" lon="-5.98228374"><ele></ele><time>2014-6-8T8:46:4Z</time></trkpt>
<trkpt lat="31.02038613" lon="-5.98204426"><ele></ele><time>2014-6-8T8:46:7Z</time></trkpt>
<trkpt lat="31.01986527" lon="-5.98161645"><ele></ele><time>2014-6-8T8:46:10Z</time></trkpt>
<trkpt lat="31.01914963" lon="-5.98084347"><ele></ele><time>2014-6-8T8:46:13Z</time></trkpt>
<trkpt lat="31.01905039" lon="-5.98040828"><ele></ele><time>2014-6-8T8:46:16Z</time></trkpt>
<trkpt lat="31.01915231" lon="-5.98075882"><ele></ele><time>2014-6-8T8:46:19Z</time></trkpt>
<trkpt lat="31.01926957" lon="-5.97994477"><ele></ele><time>2014-6-8T8:46:22Z</time></trkpt>
<trkpt lat="31.01926412" lon="-5.97988324"><ele></ele><time>2014-6-8T8:46:25Z</time></trkpt>
<trkpt lat="31.01921241" lon="-5.97990302"><ele></ele><time>2014-6-8T8:46:28Z</time></trkpt>
<trkpt lat="31.01917025" lon="-5.97981267"><ele></ele><time>2014-6-8T8:46:31Z</time></trkpt>
<trkpt lat="31.01918408" lon="-5.97942140"><ele></ele><time>2014-6-8T8:46:34Z</time></trkpt>
<trkpt lat="31.01891787" lon="-5.97926097"><ele></ele><time>2014-6-8T8:46:37Z</time></trkpt>
<trkpt lat="31.01866859" lon="-5.97883391"><ele></ele><time>2014-6-8T8:46:40Z</time></trkpt>
<trkpt lat="31.01866482" lon="-5.97871740"><ele></ele><time>2014-6-8T8:46:43Z</time></trkpt>
<trkpt lat="31.01778262" lon="-5.97776656"><ele></ele><time>2014-6-8T8:46:46Z</time></trkpt>
<trkpt lat="31.01744961" lon="-5.97724604"><ele></ele><time>2014-6-8T8:46:49Z</time></trkpt>
<trkpt lat="31.01739789" lon="-5.97727220"><ele></ele><time>2014-6-8T8:46:52Z</time></trkpt>
<trkpt lat="31.01705910" lon="-5.97664456"><ele></ele><time>2014-6-8T8:46:55Z</time></trkpt>
<trkpt lat="31.01703663" lon="-5.97649067"><ele></ele><time>2014-6-8T8:46:58Z</time></trkpt>
<trkpt lat="31.01675123" lon="-5.97629839"><ele></ele><time>2014-6-8T8:47:1Z</time></trkpt>
<trkpt lat="31.01663925" lon="-5.97602623"><ele></ele><time>2014-6-8T8:47:4Z</time></trkpt>
<trkpt lat="31.01652249" lon="-5.97590569"><ele></ele><time>2014-6-8T8:47:7Z</time></trkpt>
<trkpt lat="31.01621403" lon="-5.97518452"><ele></ele><time>2014-6-8T8:47:10Z</time></trkpt>
<trkpt lat="31.01604757" lon="-5.97403745"><ele></ele><time>2014-6-8T8:47:13Z</time></trkpt>
<trkpt lat="31.01605553" lon="-5.97347050"><ele></ele><time>2014-6-8T8:47:16Z</time></trkpt>
<trkpt lat="31.01598395" lon="-5.97318292"><ele></ele><time>2014-6-8T8:47:19Z</time></trkpt>
<trkpt lat="31.01606400" lon="-5.97310555"><ele></ele><time>2014-6-8T8:47:22Z</time></trkpt>
<trkpt lat="31.01600792" lon="-5.97300497"><ele></ele><time>2014-6-8T8:47:25Z</time></trkpt>
<trkpt lat="31.01598253" lon="-5.97304763"><ele></ele><time>2014-6-8T8:47:28Z</time></trkpt>
<trkpt lat="31.01601505" lon="-5.97280783"><ele></ele><time>2014-6-8T8:47:31Z</time></trkpt>
<trkpt lat="31.01621621" lon="-5.97222906"><ele></ele><time>2014-6-8T8:47:34Z</time></trkpt>
<trkpt lat="31.01657186" lon="-5.97184114"><ele></ele><time>2014-6-8T8:47:37Z</time></trkpt>
<trkpt lat="31.01668049" lon="-5.97164350"><ele></ele><time>2014-6-8T8:47:40Z</time></trkpt>
<trkpt lat="31.01722866" lon="-5.97007784"><ele></ele><time>2014-6-8T8:47:43Z</time></trkpt>
<trkpt lat="31.01722011" lon="-5.96964785"><ele></ele><time>2014-6-8T8:47:46Z</time></trkpt>
<trkpt lat="31.01748498" lon="-5.96920948"><ele></ele><time>2014-6-8T8:47:49Z</time></trkpt>
<trkpt lat="31.01751046" lon="-5.96830867"><ele></ele><time>2014-6-8T8:47:52Z</time></trkpt>
<trkpt lat="31.01721106" lon="-5.96779402"><ele></ele><time>2014-6-8T8:47:55Z</time></trkpt>
<trkpt lat="31.01685592" lon="-5.96749479"><ele></ele><time>2014-6-8T8:47:58Z</time></trkpt>
<trkpt lat="31.01661385" lon="-5.96708533"><ele></ele><time>2014-6-8T8:48:1Z</time></trkpt>
<trkpt lat="31.01614815" lon="-5.96672173"><ele></ele><time>2014-6-8T8:48:4Z</time></trkpt>
<trkpt lat="31.01614832" lon="-5.96687361"><ele></ele><time>2014-6-8T8:48:7Z</time></trkpt>
<trkpt lat="31.01626265" lon="-5.96653179"><ele></ele><time>2014-6-8T8:48:10Z</time></trkpt>
<trkpt lat="31.01622057" lon="-5.96645510"><ele></ele><time>2014-6-8T8:48:13Z</time></trkpt>
<trkpt lat="31.01600541" lon="-5.96638653"><ele></ele><time>2014-6-8T8:48:16Z</time></trkpt>
<trkpt lat="31.01584045" lon="-5.96608629"><ele></ele><time>2014-6-8T8:48:19Z</time></trkpt>
<trkpt lat="31.01557324" lon="-5.96527602"><ele></ele><time>2014-6-8T8:48:22Z</time></trkpt>
<trkpt lat="31.01538288" lon="-5.96522832"><ele></ele><time>2014-6-8T8:48:25Z</time></trkpt>
<trkpt lat="31.01526218" lon="-5.96528792"><ele></ele><time>2014-6-8T8:48:28Z</time></trkpt>
<trkpt lat="31.01534667" lon="-5.96507602"><ele></ele><time>2014-6-8T8:48:31Z</time></trkpt>
<trkpt lat="31.01557952" lon="-5.96504593"><ele></ele><time>2014-6-8T8:48:34Z</time></trkpt>
<trkpt lat="31.01572612" lon="-5.96378219"><ele></ele><time>2014-6-8T8:48:37Z</time></trkpt>
<trkpt lat="31.01608939" lon="-5.96206348"><ele></ele><time>2014-6-8T8:48:40Z</time></trkpt>
<trkpt lat="31.01634244" lon="-5.96168730"><ele></ele><time>2014-6-8T8:48:43Z</time></trkpt>
<trkpt lat="31.01634898" lon="-5.96137290"><ele></ele><time>2014-6-8T8:48:46Z</time></trkpt>
<trkpt lat="31.01619199" lon="-5.96039934"><ele></ele><time>2014-6-8T8:48:49Z</time></trkpt>
<trkpt lat="31.01614673" lon="-5.96033396"><ele></ele><time>2014-6-8T8:48:52Z</time></trkpt>
<trkpt lat="31.01612938" lon="-5.96046447"><ele></ele><time>2014-6-8T8:48:55Z</time></trkpt>
<trkpt lat="31.01605444" lon="-5.96058391"><ele></ele><time>2014-6-8T8:48:58Z</time></trkpt>
<trkpt lat="31.01604598" lon="-5.96059305"><ele></ele><time>2014-6-8T8:49:1Z</time></trkpt>
<trkpt lat="31.01603248" lon="-5.96060352"><ele></ele><time>2014-6-8T8:49:4Z</time></trkpt>
<trkpt lat="31.01581221" lon="-5.96079622"><ele></ele><time>2014-6-8T8:49:7Z</time></trkpt>
<trkpt lat="31.01563510" lon="-5.96042180"><ele></ele><time>2014-6-8T8:49:10Z</time></trkpt>
<trkpt lat="31.01555999" lon="-5.96036548"><ele></ele><time>2014-6-8T8:49:13Z</time></trkpt>
<trkpt lat="31.01554776" lon="-5.96020111"><ele></ele><time>2014-6-8T8:49:16Z</time></trkpt>
<trkpt lat="31.01531407" lon="-5.95970666"><ele></ele><time>2014-6-8T8:49:19Z</time></trkpt>
<trkpt lat="31.01532991" lon="-5.95960910"><ele></ele><time>2014-6-8T8:49:22Z</time></trkpt>
<trkpt lat="31.01527903" lon="-5.95961655"><ele></ele><time>2014-6-8T8:49:25Z</time></trkpt>
<trkpt lat="31.01529437" lon="-5.95961857"><ele></ele><time>2014-6-8T8:49:28Z</time></trkpt>
<trkpt lat="31.01538012" lon="-5.95961278"><ele></ele><time>2014-6-8T8:49:31Z</time></trkpt>
<trkpt lat="31.01548263" lon="-5.95948898"><ele></ele><time>2014-6-8T8:49:34Z</time></trkpt>
<trkpt lat="31.01546561" lon="-5.95937599"><ele></ele><time>2014-6-8T8:49:37Z</time></trkpt>
<trkpt lat="31.01545011" lon="-5.95913703"><ele></ele><time>2014-6-8T8:49:40Z</time></trkpt>
<trkpt lat="31.01541398" lon="-5.95806004"><ele></ele><time>2014-6-8T8:49:43Z</time></trkpt>
<trkpt lat="31.01550492" lon="-5.95790774"><ele></ele><time>2014-6-8T8:49:46Z</time></trkpt>
<trkpt lat="31.01548665" lon="-5.95779844"><ele></ele><time>2014-6-8T8:49:49Z</time></trkpt>
<trkpt lat="31.01563602" lon="-5.95750381"><ele></ele><time>2014-6-8T8:49:52Z</time></trkpt>
<trkpt lat="31.01600717" lon="-5.95704708"><ele></ele><time>2014-6-8T8:49:55Z</time></trkpt>
<trkpt lat="31.01612460" lon="-5.95683821"><ele></ele><time>2014-6-8T8:49:58Z</time></trkpt>
<trkpt lat="31.01607489" lon="-5.95680929"><ele></ele><time>2014-6-8T8:50:1Z</time></trkpt>
<trkpt lat="31.01594875" lon="-5.95604955"><ele></ele><time>2014-6-8T8:50:4Z</time></trkpt>
<trkpt lat="31.01611949" lon="-5.95578971"><ele></ele><time>2014-6-8T8:50:7Z</time></trkpt>
<trkpt lat="31.01641059" lon="-5.95536425"><ele></ele><time>2014-6-8T8:50:10Z</time></trkpt>
<trkpt lat="31.01647203" lon="-5.95505797"><ele></ele><time>2014-6-8T8:50:13Z</time></trkpt>
<trkpt lat="31.01677185" lon="-5.95443620"><ele></ele><time>2014-6-8T8:50:16Z</time></trkpt>
<trkpt lat="31.01749454" lon="-5.95317104"><ele></ele><time>2014-6-8T8:50:19Z</time></trkpt>
<trkpt lat="31.01768858" lon="-5.95268045"><ele></ele><time>2014-6-8T8:50:22Z</time></trkpt>
<trkpt lat="31.01764533" lon="-5.95252873"><ele></ele><time>2014-6-8T8:50:25Z</time></trkpt>
<trkpt lat="31.01729044" lon="-5.95226269"><ele></ele><time>2014-6-8T8:50:28Z</time></trkpt>
<trkpt lat="31.01673204" lon="-5.95159449"><ele></ele><time>2014-6-8T8:50:31Z</time></trkpt>
<trkpt lat="31.01660262" lon="-5.95106500"><ele></ele><time>2014-6-8T8:50:34Z</time></trkpt>
<trkpt lat="31.01690579" lon="-5.95078245"><ele></ele><time>2014-6-8T8:50:37Z</time></trkpt>
<trkpt lat="31.01706949" lon="-5.95028079"><ele></ele><time>2014-6-8T8:50:40Z</time></trkpt>
<trkpt lat="31.01678702" lon="-5.94989749"><ele></ele><time>2014-6-8T8:50:43Z</time></trkpt>
<trkpt lat="31.01694728" lon="-5.94962910"><ele></ele><time>2014-6-8T8:50:46Z</time></trkpt>
<trkpt lat="31.01714325" lon="-5.94954042"><ele></ele><time>2014-6-8T8:50:49Z</time></trkpt>
<trkpt lat="31.01730276" lon="-5.94935250"><ele></ele><time>2014-6-8T8:50:52Z</time></trkpt>
<trkpt lat="31.01769822" lon="-5.94872980"><ele></ele><time>2014-6-8T8:50:55Z</time></trkpt>
<trkpt lat="31.01800114" lon="-5.94819118"><ele></ele><time>2014-6-8T8:50:58Z</time></trkpt>
<trkpt lat="31.01833181" lon="-5.94778072"><ele></ele><time>2014-6-8T8:51:1Z</time></trkpt>
<trkpt lat="31.01838687" lon="-5.94759523"><ele></ele><time>2014-6-8T8:51:4Z</time></trkpt>
<trkpt lat="31.01852090" lon="-5.94748316"><ele></ele><time>2014-6-8T8:51:7Z</time></trkpt>
<trkpt lat="31.01856365" lon="-5.94744360"><ele></ele><time>2014-6-8T8:51:10Z</time></trkpt>
<trkpt lat="31.01859315" lon="-5.94730589"><ele></ele><time>2014-6-8T8:51:13Z</time></trkpt>
<trkpt lat="31.01901359" lon="-5.94680389"><ele></ele><time>2014-6-8T8:51:16Z</time></trkpt>
<trkpt lat="31.01978548" lon="-5.94503280"><ele></ele><time>2014-6-8T8:51:19Z</time></trkpt>
<trkpt lat="31.02006032" lon="-5.94453801"><ele></ele><time>2014-6-8T8:51:22Z</time></trkpt>
<trkpt lat="31.02047338" lon="-5.94408271"><ele></ele><time>2014-6-8T8:51:25Z</time></trkpt>
<trkpt lat="31.02099809" lon="-5.94378985"><ele></ele><time>2014-6-8T8:51:28Z</time></trkpt>
<trkpt lat="31.02121032" lon="-5.94352531"><ele></ele><time>2014-6-8T8:51:31Z</time></trkpt>
<trkpt lat="31.02121426" lon="-5.94318249"><ele></ele><time>2014-6-8T8:51:34Z</time></trkpt>
<trkpt lat="31.02128961" lon="-5.94296691"><ele></ele><time>2014-6-8T8:51:37Z</time></trkpt>
<trkpt lat="31.02188389" lon="-5.94270850"><ele></ele><time>2014-6-8T8:51:40Z</time></trkpt>
<trkpt lat="31.02209763" lon="-5.94250591"><ele></ele><time>2014-6-8T8:51:43Z</time></trkpt>
<trkpt lat="31.02218270" lon="-5.94181096"><ele></ele><time>2014-6-8T8:51:46Z</time></trkpt>
<trkpt lat="31.02193879" lon="-5.94137552"><ele></ele><time>2014-6-8T8:51:49Z</time></trkpt>
<trkpt lat="31.02188154" lon="-5.94117595"><ele></ele><time>2014-6-8T8:51:52Z</time></trkpt>
<trkpt lat="31.02191322" lon="-5.94097772"><ele></ele><time>2014-6-8T8:51:55Z</time></trkpt>
<trkpt lat="31.02205102" lon="-5.94071922"><ele></ele><time>2014-6-8T8:51:58Z</time></trkpt>
<trkpt lat="31.02203334" lon="-5.94063255"><ele></ele><time>2014-6-8T8:52:1Z</time></trkpt>
<trkpt lat="31.02212629" lon="-5.94059056"><ele></ele><time>2014-6-8T8:52:4Z</time></trkpt>
<trkpt lat="31.02240239" lon="-5.94015780"><ele></ele><time>2014-6-8T8:52:7Z</time></trkpt>
<trkpt lat="31.02244288" lon="-5.93990961"><ele></ele><time>2014-6-8T8:52:10Z</time></trkpt>
<trkpt lat="31.02289206" lon="-5.93888568"><ele></ele><time>2014-6-8T8:52:13Z</time></trkpt>
<trkpt lat="31.02286465" lon="-5.93882776"><ele></ele><time>2014-6-8T8:52:16Z</time></trkpt>
<trkpt lat="31.02293255" lon="-5.93874780"><ele></ele><time>2014-6-8T8:52:19Z</time></trkpt>
<trkpt lat="31.02303414" lon="-5.93832987"><ele></ele><time>2014-6-8T8:52:22Z</time></trkpt>
<trkpt lat="31.02329724" lon="-5.93779117"><ele></ele><time>2014-6-8T8:52:25Z</time></trkpt>
<trkpt lat="31.02320848" lon="-5.93780215"><ele></ele><time>2014-6-8T8:52:28Z</time></trkpt>
<trkpt lat="31.02338031" lon="-5.93765010"><ele></ele><time>2014-6-8T8:52:31Z</time></trkpt>
<trkpt lat="31.02389563" lon="-5.93757919"><ele></ele><time>2014-6-8T8:52:34Z</time></trkpt>
<trkpt lat="31.02421188" lon="-5.93765119"><ele></ele><time>2014-6-8T8:52:37Z</time></trkpt>
<trkpt lat="31.02429209" lon="-5.93761875"><ele></ele><time>2014-6-8T8:52:40Z</time></trkpt>
<trkpt lat="31.02433048" lon="-5.93707024"><ele></ele><time>2014-6-8T8:52:43Z</time></trkpt>
<trkpt lat="31.02405581" lon="-5.93675584"><ele></ele><time>2014-6-8T8:52:46Z</time></trkpt>
<trkpt lat="31.02409663" lon="-5.93603835"><ele></ele><time>2014-6-8T8:52:49Z</time></trkpt>
<trkpt lat="31.02411029" lon="-5.93599484"><ele></ele><time>2014-6-8T8:52:52Z</time></trkpt>
<trkpt lat="31.02413929" lon="-5.93605025"><ele></ele><time>2014-6-8T8:52:55Z</time></trkpt>
<trkpt lat="31.02412454" lon="-5.93588470"><ele></ele><time>2014-6-8T8:52:58Z</time></trkpt>
<trkpt lat="31.02421783" lon="-5.93493378"><ele></ele><time>2014-6-8T8:53:1Z</time></trkpt>
<trkpt lat="31.02432160" lon="-5.93458090"><ele></ele><time>2014-6-8T8:53:4Z</time></trkpt>
<trkpt lat="31.02458068" lon="-5.93407505"><ele></ele><time>2014-6-8T8:53:7Z</time></trkpt>
<trkpt lat="31.02491302" lon="-5.93384589"><ele></ele><time>2014-6-8T8:53:10Z</time></trkpt>
<trkpt lat="31.02550772" lon="-5.93285775"><ele></ele><time>2014-6-8T8:53:13Z</time></trkpt>
<trkpt lat="31.02528317" lon="-5.93235701"><ele></ele><time>2014-6-8T8:53:16Z</time></trkpt>
<trkpt lat="31.02566480" lon="-5.93157146"><ele></ele><time>2014-6-8T8:53:19Z</time></trkpt>
<trkpt lat="31.02612186" lon="-5.92989122"><ele></ele><time>2014-6-8T8:53:22Z</time></trkpt>
<trkpt lat="31.02677808" lon="-5.92894499"><ele></ele><time>2014-6-8T8:53:25Z</time></trkpt>
<trkpt lat="31.02833653" lon="-5.92754731"><ele></ele><time>2014-6-8T8:53:28Z</time></trkpt>
<trkpt lat="31.02895645" lon="-5.92694784"><ele></ele><time>2014-6-8T8:53:31Z</time></trkpt>
<trkpt lat="31.02945493" lon="-5.92626982"><ele></ele><time>2014-6-8T8:53:34Z</time></trkpt>
<trkpt lat="31.02983521" lon="-5.92592491"><ele></ele><time>2014-6-8T8:53:37Z</time></trkpt>
<trkpt lat="31.03027032" lon="-5.92537665"><ele></ele><time>2014-6-8T8:53:40Z</time></trkpt>
<trkpt lat="31.03074322" lon="-5.92427460"><ele></ele><time>2014-6-8T8:53:43Z</time></trkpt>
<trkpt lat="31.03077658" lon="-5.92432807"><ele></ele><time>2014-6-8T8:53:46Z</time></trkpt>
<trkpt lat="31.03094121" lon="-5.92406463"><ele></ele><time>2014-6-8T8:53:49Z</time></trkpt>
<trkpt lat="31.03141654" lon="-5.92377428"><ele></ele><time>2014-6-8T8:53:52Z</time></trkpt>
<trkpt lat="31.03181493" lon="-5.92341478"><ele></ele><time>2014-6-8T8:53:55Z</time></trkpt>
<trkpt lat="31.03160187" lon="-5.92326625"><ele></ele><time>2014-6-8T8:53:58Z</time></trkpt>
<trkpt lat="31.03159860" lon="-5.92336331"><ele></ele><time>2014-6-8T8:54:1Z</time></trkpt>
<trkpt lat="31.03174293" lon="-5.92345342"><ele></ele><time>2014-6-8T8:54:4Z</time></trkpt>
<trkpt lat="31.03209464" lon="-5.92394837"><ele></ele><time>2014-6-8T8:54:7Z</time></trkpt>
<trkpt lat="31.03201342" lon="-5.92395256"><ele></ele><time>2014-6-8T8:54:10Z</time></trkpt>
<trkpt lat="31.03201610" lon="-5.92388693"><ele></ele><time>2014-6-8T8:54:13Z</time></trkpt>
<trkpt lat="31.03182960" lon="-5.92371150"><ele></ele><time>2014-6-8T8:54:16Z</time></trkpt>
<trkpt lat="31.03174126" lon="-5.92350497"><ele></ele><time>2014-6-8T8:54:19Z</time></trkpt>
<trkpt lat="31.03171569" lon="-5.92348410"><ele></ele><time>2014-6-8T8:54:22Z</time></trkpt>
<trkpt lat="31.03169977" lon="-5.92346541"><ele></ele><time>2014-6-8T8:54:25Z</time></trkpt>
<trkpt lat="31.03158033" lon="-5.92326734"><ele></ele><time>2014-6-8T8:54:28Z</time></trkpt>
<trkpt lat="31.03145233" lon="-5.92339634"><ele></ele><time>2014-6-8T8:54:31Z</time></trkpt>
<trkpt lat="31.03141109" lon="-5.92334823"><ele></ele><time>2014-6-8T8:54:34Z</time></trkpt>
<trkpt lat="31.03153104" lon="-5.92322996"><ele></ele><time>2014-6-8T8:54:37Z</time></trkpt>
<trkpt lat="31.03193672" lon="-5.92302594"><ele></ele><time>2014-6-8T8:54:40Z</time></trkpt>
<trkpt lat="31.03215734" lon="-5.92290323"><ele></ele><time>2014-6-8T8:54:43Z</time></trkpt>
<trkpt lat="31.03240703" lon="-5.92262571"><ele></ele><time>2014-6-8T8:54:46Z</time></trkpt>
<trkpt lat="31.03266955" lon="-5.92242647"><ele></ele><time>2014-6-8T8:54:49Z</time></trkpt>
<trkpt lat="31.03271909" lon="-5.92237157"><ele></ele><time>2014-6-8T8:54:52Z</time></trkpt>
<trkpt lat="31.03273342" lon="-5.92233469"><ele></ele><time>2014-6-8T8:54:55Z</time></trkpt>
<trkpt lat="31.03295722" lon="-5.92170127"><ele></ele><time>2014-6-8T8:54:58Z</time></trkpt>
<trkpt lat="31.03326668" lon="-5.92158468"><ele></ele><time>2014-6-8T8:55:1Z</time></trkpt>
<trkpt lat="31.03383472" lon="-5.92088521"><ele></ele><time>2014-6-8T8:55:4Z</time></trkpt>
<trkpt lat="31.03388778" lon="-5.92085050"><ele></ele><time>2014-6-8T8:55:7Z</time></trkpt>
<trkpt lat="31.03395609" lon="-5.92081974"><ele></ele><time>2014-6-8T8:55:10Z</time></trkpt>
<trkpt lat="31.03415131" lon="-5.92032286"><ele></ele><time>2014-6-8T8:55:13Z</time></trkpt>
<trkpt lat="31.03446295" lon="-5.92016495"><ele></ele><time>2014-6-8T8:55:16Z</time></trkpt>
<trkpt lat="31.03459672" lon="-5.92001173"><ele></ele><time>2014-6-8T8:55:19Z</time></trkpt>
<trkpt lat="31.03472681" lon="-5.91994828"><ele></ele><time>2014-6-8T8:55:22Z</time></trkpt>
<trkpt lat="31.03474558" lon="-5.91987862"><ele></ele><time>2014-6-8T8:55:25Z</time></trkpt>
<trkpt lat="31.03502101" lon="-5.91980855"><ele></ele><time>2014-6-8T8:55:28Z</time></trkpt>
<trkpt lat="31.03578963" lon="-5.91937822"><ele></ele><time>2014-6-8T8:55:31Z</time></trkpt>
<trkpt lat="31.03578192" lon="-5.91927487"><ele></ele><time>2014-6-8T8:55:34Z</time></trkpt>
<trkpt lat="31.03598879" lon="-5.91871102"><ele></ele><time>2014-6-8T8:55:37Z</time></trkpt>
<trkpt lat="31.03587773" lon="-5.91857876"><ele></ele><time>2014-6-8T8:55:40Z</time></trkpt>
<trkpt lat="31.03588854" lon="-5.91852662"><ele></ele><time>2014-6-8T8:55:43Z</time></trkpt>
<trkpt lat="31.03637301" lon="-5.91815270"><ele></ele><time>2014-6-8T8:55:46Z</time></trkpt>
<trkpt lat="31.03722394" lon="-5.91768407"><ele></ele><time>2014-6-8T8:55:49Z</time></trkpt>
<trkpt lat="31.03743047" lon="-5.91759933"><ele></ele><time>2014-6-8T8:55:52Z</time></trkpt>
<trkpt lat="31.03742151" lon="-5.91756086"><ele></ele><time>2014-6-8T8:55:55Z</time></trkpt>
<trkpt lat="31.03818828" lon="-5.91680045"><ele></ele><time>2014-6-8T8:55:58Z</time></trkpt>
<trkpt lat="31.03836564" lon="-5.91672828"><ele></ele><time>2014-6-8T8:56:1Z</time></trkpt>
<trkpt lat="31.03885917" lon="-5.91628312"><ele></ele><time>2014-6-8T8:56:4Z</time></trkpt>
<trkpt lat="31.03909546" lon="-5.91628061"><ele></ele><time>2014-6-8T8:56:7Z</time></trkpt>
<trkpt lat="31.03954498" lon="-5.91641304"><ele></ele><time>2014-6-8T8:56:10Z</time></trkpt>
<trkpt lat="31.03956208" lon="-5.91647741"><ele></ele><time>2014-6-8T8:56:13Z</time></trkpt>
<trkpt lat="31.03941791" lon="-5.91668051"><ele></ele><time>2014-6-8T8:56:16Z</time></trkpt>
<trkpt lat="31.03932395" lon="-5.91669082"><ele></ele><time>2014-6-8T8:56:19Z</time></trkpt>
<trkpt lat="31.03935555" lon="-5.91669928"><ele></ele><time>2014-6-8T8:56:22Z</time></trkpt>
<trkpt lat="31.03949494" lon="-5.91647616"><ele></ele><time>2014-6-8T8:56:25Z</time></trkpt>
<trkpt lat="31.04004722" lon="-5.91610266"><ele></ele><time>2014-6-8T8:56:28Z</time></trkpt>
<trkpt lat="31.04010036" lon="-5.91593192"><ele></ele><time>2014-6-8T8:56:31Z</time></trkpt>
<trkpt lat="31.04019156" lon="-5.91594902"><ele></ele><time>2014-6-8T8:56:34Z</time></trkpt>
<trkpt lat="31.04041703" lon="-5.91571466"><ele></ele><time>2014-6-8T8:56:37Z</time></trkpt>
<trkpt lat="31.04043405" lon="-5.91564870"><ele></ele><time>2014-6-8T8:56:40Z</time></trkpt>
<trkpt lat="31.04047067" lon="-5.91558734"><ele></ele><time>2014-6-8T8:56:43Z</time></trkpt>
<trkpt lat="31.04080528" lon="-5.91495182"><ele></ele><time>2014-6-8T8:56:46Z</time></trkpt>
<trkpt lat="31.04098650" lon="-5.91470405"><ele></ele><time>2014-6-8T8:56:49Z</time></trkpt>
<trkpt lat="31.04104911" lon="-5.91451462"><ele></ele><time>2014-6-8T8:56:52Z</time></trkpt>
<trkpt lat="31.04121742" lon="-5.91434397"><ele></ele><time>2014-6-8T8:56:55Z</time></trkpt>
<trkpt lat="31.04125950" lon="-5.91410282"><ele></ele><time>2014-6-8T8:56:58Z</time></trkpt>
<trkpt lat="31.04151908" lon="-5.91400878"><ele></ele><time>2014-6-8T8:57:1Z</time></trkpt>
<trkpt lat="31.04203600" lon="-5.91299172"><ele></ele><time>2014-6-8T8:57:4Z</time></trkpt>
<trkpt lat="31.04211604" lon="-5.91261411"><ele></ele><time>2014-6-8T8:57:7Z</time></trkpt>
<trkpt lat="31.04231159" lon="-5.91226819"><ele></ele><time>2014-6-8T8:57:10Z</time></trkpt>
<trkpt lat="31.04240547" lon="-5.91195353"><ele></ele><time>2014-6-8T8:57:13Z</time></trkpt>
<trkpt lat="31.04244914" lon="-5.91160233"><ele></ele><time>2014-6-8T8:57:16Z</time></trkpt>
<trkpt lat="31.04265802" lon="-5.91107519"><ele></ele><time>2014-6-8T8:57:19Z</time></trkpt>
<trkpt lat="31.04302162" lon="-5.91057513"><ele></ele><time>2014-6-8T8:57:22Z</time></trkpt>
<trkpt lat="31.04306906" lon="-5.91032359"><ele></ele><time>2014-6-8T8:57:25Z</time></trkpt>
<trkpt lat="31.04324500" lon="-5.90960216"><ele></ele><time>2014-6-8T8:57:28Z</time></trkpt>
<trkpt lat="31.04320787" lon="-5.90964038"><ele></ele><time>2014-6-8T8:57:31Z</time></trkpt>
<trkpt lat="31.04323260" lon="-5.90964113"><ele></ele><time>2014-6-8T8:57:34Z</time></trkpt>
<trkpt lat="31.04321742" lon="-5.90957978"><ele></ele><time>2014-6-8T8:57:37Z</time></trkpt>
<trkpt lat="31.04316361" lon="-5.90949210"><ele></ele><time>2014-6-8T8:57:40Z</time></trkpt>
<trkpt lat="31.04286874" lon="-5.90936336"><ele></ele><time>2014-6-8T8:57:43Z</time></trkpt>
<trkpt lat="31.04267377" lon="-5.90904074"><ele></ele><time>2014-6-8T8:57:46Z</time></trkpt>
<trkpt lat="31.04267076" lon="-5.90886245"><ele></ele><time>2014-6-8T8:57:49Z</time></trkpt>
<trkpt lat="31.04245149" lon="-5.90872432"><ele></ele><time>2014-6-8T8:57:52Z</time></trkpt>
<trkpt lat="31.04225996" lon="-5.90841402"><ele></ele><time>2014-6-8T8:57:55Z</time></trkpt>
<trkpt lat="31.04210012" lon="-5.90777901"><ele></ele><time>2014-6-8T8:57:58Z</time></trkpt>
<trkpt lat="31.04185310" lon="-5.90734072"><ele></ele><time>2014-6-8T8:58:1Z</time></trkpt>
<trkpt lat="31.04162235" lon="-5.90655542"><ele></ele><time>2014-6-8T8:58:4Z</time></trkpt>
<trkpt lat="31.04159745" lon="-5.90650756"><ele></ele><time>2014-6-8T8:58:7Z</time></trkpt>
<trkpt lat="31.04159100" lon="-5.90649473"><ele></ele><time>2014-6-8T8:58:10Z</time></trkpt>
<trkpt lat="31.04145069" lon="-5.90622568"><ele></ele><time>2014-6-8T8:58:13Z</time></trkpt>
<trkpt lat="31.04139964" lon="-5.90610724"><ele></ele><time>2014-6-8T8:58:16Z</time></trkpt>
<trkpt lat="31.04115070" lon="-5.90507844"><ele></ele><time>2014-6-8T8:58:19Z</time></trkpt>
<trkpt lat="31.04114383" lon="-5.90499538"><ele></ele><time>2014-6-8T8:58:22Z</time></trkpt>
<trkpt lat="31.04083973" lon="-5.90389693"><ele></ele><time>2014-6-8T8:58:25Z</time></trkpt>
<trkpt lat="31.04075256" lon="-5.90322278"><ele></ele><time>2014-6-8T8:58:28Z</time></trkpt>
<trkpt lat="31.04065985" lon="-5.90289772"><ele></ele><time>2014-6-8T8:58:31Z</time></trkpt>
<trkpt lat="31.04057813" lon="-5.90188159"><ele></ele><time>2014-6-8T8:58:34Z</time></trkpt>
<trkpt lat="31.04041527" lon="-5.90159392"><ele></ele><time>2014-6-8T8:58:37Z</time></trkpt>
<trkpt lat="31.04032198" lon="-5.90103602"><ele></ele><time>2014-6-8T8:58:40Z</time></trkpt>
<trkpt lat="31.04020371" lon="-5.90066629"><ele></ele><time>2014-6-8T8:58:43Z</time></trkpt>
<trkpt lat="31.03946920" lon="-5.89959224"><ele></ele><time>2014-6-8T8:58:46Z</time></trkpt>
<trkpt lat="31.03930894" lon="-5.89914800"><ele></ele><time>2014-6-8T8:58:49Z</time></trkpt>
<trkpt lat="31.03932973" lon="-5.89901757"><ele></ele><time>2014-6-8T8:58:52Z</time></trkpt>
<trkpt lat="31.03953685" lon="-5.89918144"><ele></ele><time>2014-6-8T8:58:55Z</time></trkpt>
<trkpt lat="31.03924281" lon="-5.89892579"><ele></ele><time>2014-6-8T8:58:58Z</time></trkpt>
<trkpt lat="31.03923761" lon="-5.89884315"><ele></ele><time>2014-6-8T8:59:1Z</time></trkpt>
<trkpt lat="31.03948848" lon="-5.89869378"><ele></ele><time>2014-6-8T8:59:4Z</time></trkpt>
<trkpt lat="31.04010564" lon="-5.89803723"><ele></ele><time>2014-6-8T8:59:7Z</time></trkpt>
<trkpt lat="31.04052113" lon="-5.89775559"><ele></ele><time>2014-6-8T8:59:10Z</time></trkpt>
<trkpt lat="31.04072884" lon="-5.89784503"><ele></ele><time>2014-6-8T8:59:13Z</time></trkpt>
<trkpt lat="31.04072892" lon="-5.89792483"><ele></ele><time>2014-6-8T8:59:16Z</time></trkpt>
<trkpt lat="31.04091542" lon="-5.89811099"><ele></ele><time>2014-6-8T8:59:19Z</time></trkpt>
<trkpt lat="31.04096177" lon="-5.89797252"><ele></ele><time>2014-6-8T8:59:22Z</time></trkpt>
<trkpt lat="31.04090536" lon="-5.89795182"><ele></ele><time>2014-6-8T8:59:25Z</time></trkpt>
<trkpt lat="31.04114533" lon="-5.89782114"><ele></ele><time>2014-6-8T8:59:28Z</time></trkpt>
<trkpt lat="31.04095699" lon="-5.89794863"><ele></ele><time>2014-6-8T8:59:31Z</time></trkpt>
<trkpt lat="31.04095431" lon="-5.89795081"><ele></ele><time>2014-6-8T8:59:34Z</time></trkpt>
<trkpt lat="31.04090938" lon="-5.89798819"><ele></ele><time>2014-6-8T8:59:37Z</time></trkpt>
<trkpt lat="31.04100686" lon="-5.89799113"><ele></ele><time>2014-6-8T8:59:40Z</time></trkpt>
<trkpt lat="31.04100133" lon="-5.89792659"><ele></ele><time>2014-6-8T8:59:43Z</time></trkpt>
<trkpt lat="31.04104852" lon="-5.89793681"><ele></ele><time>2014-6-8T8:59:46Z</time></trkpt>
<trkpt lat="31.04098700" lon="-5.89788434"><ele></ele><time>2014-6-8T8:59:49Z</time></trkpt>
<trkpt lat="31.04098197" lon="-5.89788426"><ele></ele><time>2014-6-8T8:59:52Z</time></trkpt>
</trkseg></trk></gpx>